Time;durP1;ratioP1;P1;durP2;ratioP2;P2;SDS_P1;SDS_P2;PMS_P1;PMS_P2;Temp;Humidity;BMP_temperature;BMP_pressure;BME280_temperature;BME280_humidity;BME280_pressure;Samples;Min_cycle;Max_cycle;Signal;HPM_P1;HPM_P2
2021/12/01 00:02:15;;;;;;;0.93;0.80;;;;;;;6.87;67.31;97162.94;8355435;28;20228;-68
2021/12/01 00:06:18;;;;;;;1.10;1.00;;;;;;;6.60;68.49;97140.03;8379816;28;20232;-68
2021/12/01 00:10:23;;;;;;;0.80;0.80;;;;;;;6.69;68.73;97144.78;8379711;28;20235;-68
2021/12/01 00:14:27;;;;;;;0.80;0.80;;;;;;;6.69;68.64;97125.97;8379780;28;20253;-67
2021/12/01 00:18:30;;;;;;;1.07;1.00;;;;;;;6.61;68.61;97139.16;8379168;28;20242;-68
2021/12/01 00:22:33;;;;;;;0.83;0.83;;;;;;;6.82;67.88;97127.94;8379870;28;20369;-68
2021/12/01 00:26:36;;;;;;;1.40;0.93;;;;;;;6.38;68.98;97133.22;8379612;28;20238;-68
2021/12/01 00:30:41;;;;;;;0.83;0.73;;;;;;;6.77;68.59;97131.59;8379592;28;20227;-68
2021/12/01 00:34:44;;;;;;;0.80;0.80;;;;;;;6.78;68.74;97131.53;8379698;28;20494;-68
2021/12/01 00:38:47;;;;;;;1.20;0.80;;;;;;;6.75;69.10;97118.78;8379350;28;20253;-68
2021/12/01 00:42:50;;;;;;;0.70;0.70;;;;;;;6.81;69.01;97122.84;8379416;28;20234;-69
2021/12/01 00:46:56;;;;;;;0.73;0.73;;;;;;;6.85;69.94;97108.94;8354914;28;20235;-68
2021/12/01 00:50:59;;;;;;;0.73;0.73;;;;;;;6.70;70.36;97114.75;8346001;28;20229;-69
2021/12/01 00:55:03;;;;;;;0.60;0.60;;;;;;;6.79;70.18;97111.78;8346207;28;20243;-67
2021/12/01 00:59:06;;;;;;;0.70;0.50;;;;;;;6.78;70.23;97126.41;8345469;28;20413;-68
2021/12/01 01:03:10;;;;;;;0.67;0.50;;;;;;;6.89;69.91;97114.78;8345971;28;20243;-68
2021/12/01 01:07:13;;;;;;;0.40;0.40;;;;;;;6.99;69.05;97111.78;8346121;28;20550;-68
2021/12/01 01:19:58;;;;;;;0.90;0.70;;;;;;;7.17;69.38;97098.97;8346296;28;20425;-67
2021/12/01 01:24:01;;;;;;;0.50;0.50;;;;;;;7.19;69.15;97097.19;8352072;28;20244;-67
2021/12/01 01:28:04;;;;;;;0.50;0.50;;;;;;;7.30;69.05;97099.28;8351757;28;20561;-67
2021/12/01 01:32:08;;;;;;;0.60;0.60;;;;;;;7.17;69.41;97098.97;8351114;28;20247;-68
2021/12/01 01:36:13;;;;;;;0.60;0.60;;;;;;;7.00;69.66;97095.41;8351531;28;20236;-67
2021/12/01 01:40:16;;;;;;;0.97;0.87;;;;;;;7.13;69.16;97082.84;8351159;28;20240;-68
2021/12/01 01:44:19;;;;;;;1.53;1.27;;;;;;;7.40;68.33;97083.31;8352997;28;20232;-67
2021/12/01 01:48:29;;;;;;;1.13;0.83;;;;;;;7.16;68.83;97085.28;8352723;28;20363;-67
2021/12/01 01:52:34;;;;;;;0.97;0.90;;;;;;;7.29;68.82;97080.44;8351042;28;20228;-67
2021/12/01 01:56:37;;;;;;;1.00;0.90;;;;;;;7.22;69.44;97066.97;8350691;28;20242;-67
2021/12/01 02:00:45;;;;;;;1.70;0.90;;;;;;;7.08;69.33;97055.63;8350593;28;20236;-67
2021/12/01 02:04:48;;;;;;;0.93;0.90;;;;;;;7.13;69.55;97041.63;8350627;28;20236;-67
2021/12/01 02:08:54;;;;;;;0.80;0.80;;;;;;;7.18;69.05;97047.41;8350639;28;20232;-68
2021/12/01 02:12:57;;;;;;;1.33;0.93;;;;;;;7.17;69.66;97042.34;8350412;28;20240;-67
2021/12/01 02:17:00;;;;;;;1.43;0.90;;;;;;;7.39;68.87;97043.03;8349791;28;20240;-68
2021/12/01 02:21:07;;;;;;;0.87;0.80;;;;;;;7.25;68.69;97029.94;8349858;28;20232;-67
2021/12/01 02:25:10;;;;;;;1.10;0.80;;;;;;;7.26;68.92;97028.22;8349528;28;20227;-67
2021/12/01 02:29:15;;;;;;;0.80;0.80;;;;;;;7.37;68.39;97028.56;8349334;28;20240;-67
2021/12/01 02:33:18;;;;;;;0.70;0.70;;;;;;;7.26;68.77;97025.66;8349517;28;20232;-69
2021/12/01 02:37:23;;;;;;;1.30;0.70;;;;;;;7.48;67.92;97017.72;8349452;28;20633;-68
2021/12/01 02:41:27;;;;;;;1.03;0.70;;;;;;;7.41;68.32;97002.56;8349280;28;20240;-67
2021/12/01 02:45:30;;;;;;;1.27;0.70;;;;;;;7.36;68.58;96983.09;8348951;28;20212;-67
2021/12/01 02:49:33;;;;;;;0.70;0.70;;;;;;;7.61;67.88;96969.88;8349219;28;20232;-67
2021/12/01 02:53:39;;;;;;;0.70;0.60;;;;;;;7.52;68.16;96963.44;8349082;28;20238;-67
2021/12/01 02:57:47;;;;;;;0.80;0.50;;;;;;;7.48;68.50;96969.63;8348772;28;20239;-67
2021/12/01 03:01:50;;;;;;;1.60;0.73;;;;;;;7.46;67.99;96976.59;8348638;28;20227;-67
2021/12/01 03:05:54;;;;;;;0.87;0.70;;;;;;;8.00;66.61;96961.94;8348622;28;20235;-67
2021/12/01 03:09:59;;;;;;;0.60;0.60;;;;;;;7.63;68.16;96965.47;8348447;28;20236;-67
2021/12/01 03:14:01;;;;;;;0.50;0.50;;;;;;;7.87;66.81;96947.16;8348555;28;20297;-67
2021/12/01 03:18:05;;;;;;;1.93;0.73;;;;;;;7.65;68.06;96940.47;8348205;28;20236;-67
2021/12/01 03:22:13;;;;;;;0.53;0.50;;;;;;;7.54;68.01;96942.72;8347561;28;20281;-67
2021/12/01 03:26:17;;;;;;;0.70;0.60;;;;;;;7.67;67.13;96936.06;8348025;28;20236;-67
2021/12/01 03:30:22;;;;;;;1.00;0.60;;;;;;;7.74;66.98;96927.13;8348018;28;20246;-67
2021/12/01 03:34:25;;;;;;;0.73;0.70;;;;;;;7.76;67.22;96927.88;8347590;28;20232;-67
2021/12/01 03:38:28;;;;;;;0.67;0.67;;;;;;;7.79;66.37;96921.75;8347476;28;20236;-67
2021/12/01 03:42:33;;;;;;;0.70;0.70;;;;;;;7.78;66.34;96913.19;8347639;28;20232;-67
2021/12/01 03:46:36;;;;;;;1.20;0.70;;;;;;;7.69;67.38;96910.22;8347091;28;20338;-67
2021/12/01 03:50:41;;;;;;;0.80;0.80;;;;;;;7.59;66.41;96894.38;8346877;28;20240;-67
2021/12/01 03:54:44;;;;;;;1.20;0.90;;;;;;;7.73;66.54;96893.69;8347109;28;20234;-67
2021/12/01 03:58:49;;;;;;;0.70;0.70;;;;;;;7.76;66.53;96898.72;8346976;28;20249;-67
2021/12/01 04:02:52;;;;;;;0.73;0.73;;;;;;;7.73;66.50;96891.13;8346896;28;20557;-67
2021/12/01 04:06:55;;;;;;;0.80;0.80;;;;;;;7.69;66.23;96882.72;8346854;28;20582;-67
2021/12/01 04:10:58;;;;;;;1.23;0.80;;;;;;;7.86;65.80;96874.13;8346980;28;20278;-67
2021/12/01 04:15:02;;;;;;;1.00;0.73;;;;;;;7.80;65.84;96867.53;8346510;28;20236;-67
2021/12/01 04:19:06;;;;;;;2.40;0.67;;;;;;;7.70;66.18;96876.66;8346466;28;20234;-68
2021/12/01 04:23:09;;;;;;;0.70;0.60;;;;;;;7.60;66.35;96870.31;8346516;28;20243;-67
2021/12/01 04:27:12;;;;;;;0.60;0.60;;;;;;;7.70;66.15;96866.34;8346863;28;20246;-68
2021/12/01 04:31:17;;;;;;;2.20;0.80;;;;;;;7.80;65.93;96859.81;8346447;28;20235;-67
2021/12/01 04:35:23;;;;;;;0.70;0.60;;;;;;;7.63;65.64;96860.69;8346215;28;20228;-68
2021/12/01 04:39:26;;;;;;;0.93;0.90;;;;;;;7.71;65.46;96854.28;8346444;28;20246;-67
2021/12/01 04:43:29;;;;;;;2.00;0.90;;;;;;;7.59;66.17;96851.41;8346507;28;20410;-67
2021/12/01 04:47:37;;;;;;;0.90;0.90;;;;;;;7.54;66.41;96837.09;8346599;28;20232;-67
2021/12/01 04:51:41;;;;;;;0.70;0.70;;;;;;;7.49;66.08;96841.66;8345875;28;20569;-67
2021/12/01 04:55:44;;;;;;;0.90;0.90;;;;;;;7.46;66.41;96829.75;8347998;28;20255;-67
2021/12/01 04:59:48;;;;;;;0.97;0.80;;;;;;;7.56;66.05;96812.94;8352767;28;20388;-67
2021/12/01 05:03:53;;;;;;;1.13;0.80;;;;;;;7.36;66.75;96808.78;8352561;28;20228;-67
2021/12/01 05:07:56;;;;;;;1.20;0.93;;;;;;;7.55;66.22;96818.16;8352631;28;20232;-67
2021/12/01 05:11:59;;;;;;;1.10;0.90;;;;;;;7.43;66.74;96804.97;8352392;28;20530;-67
2021/12/01 05:16:02;;;;;;;1.60;1.10;;;;;;;7.46;66.75;96809.13;8351780;28;20411;-67
2021/12/01 05:20:08;;;;;;;2.07;1.13;;;;;;;7.51;66.45;96808.94;8351536;28;20235;-67
2021/12/01 05:24:11;;;;;;;1.33;1.20;;;;;;;7.57;66.82;96799.13;8351297;28;20251;-68
2021/12/01 05:28:14;;;;;;;2.07;1.13;;;;;;;7.63;66.79;96804.00;8351598;28;20240;-68
2021/12/01 05:32:18;;;;;;;1.83;1.20;;;;;;;7.56;66.89;96801.81;8351562;28;20232;-67
2021/12/01 05:36:22;;;;;;;1.37;1.10;;;;;;;7.64;66.64;96797.91;8351348;28;20232;-68
2021/12/01 05:40:25;;;;;;;2.10;1.20;;;;;;;7.69;66.84;96787.38;8351533;28;20248;-67
2021/12/01 05:44:30;;;;;;;1.53;1.30;;;;;;;7.73;66.20;96785.47;8351061;28;20232;-67
2021/12/01 05:48:33;;;;;;;2.47;1.20;;;;;;;7.78;65.61;96768.03;8351022;28;20243;-67
2021/12/01 05:52:37;;;;;;;1.37;1.20;;;;;;;7.64;65.67;96755.84;8350902;28;20232;-67
2021/12/01 05:56:40;;;;;;;1.03;0.90;;;;;;;7.56;66.11;96747.69;8350563;28;20238;-67
2021/12/01 06:00:43;;;;;;;2.03;1.00;;;;;;;7.77;65.46;96740.59;8350167;28;20244;-67
2021/12/01 06:04:48;;;;;;;2.20;1.10;;;;;;;7.81;65.13;96721.47;8350691;28;20232;-67
2021/12/01 06:08:52;;;;;;;2.80;1.00;;;;;;;7.75;65.17;96707.16;8349711;28;20236;-70
2021/12/01 06:12:55;;;;;;;1.63;1.00;;;;;;;7.82;64.95;96693.06;8349886;28;20252;-67
2021/12/01 06:16:59;;;;;;;1.70;1.10;;;;;;;7.87;64.95;96694.53;8350406;28;20228;-68
2021/12/01 06:21:02;;;;;;;1.63;1.10;;;;;;;7.79;65.05;96690.63;8350105;28;20303;-68
2021/12/01 06:25:08;;;;;;;2.60;1.00;;;;;;;7.87;64.24;96687.63;8350434;28;20243;-70
2021/12/01 06:29:10;;;;;;;0.83;0.80;;;;;;;7.95;64.49;96694.94;8349749;28;20251;-69
2021/12/01 06:33:13;;;;;;;1.67;1.03;;;;;;;7.93;64.17;96689.06;8349494;28;20240;-68
2021/12/01 06:37:18;;;;;;;1.47;1.17;;;;;;;7.78;64.41;96683.78;8349081;28;20240;-66
2021/12/01 06:41:22;;;;;;;0.87;0.87;;;;;;;7.84;64.36;96695.53;8349212;28;20247;-67
2021/12/01 06:45:25;;;;;;;1.40;0.90;;;;;;;7.82;64.35;96682.75;8349378;28;27902;-67
2021/12/01 06:49:28;;;;;;;0.97;0.83;;;;;;;7.85;64.30;96691.22;8348618;28;20239;-68
2021/12/01 06:53:31;;;;;;;1.73;0.90;;;;;;;7.96;64.00;96689.72;8348576;28;20235;-67
2021/12/01 06:57:36;;;;;;;0.73;0.73;;;;;;;7.95;64.01;96693.19;8348409;28;20422;-67
2021/12/01 07:01:38;;;;;;;2.10;0.90;;;;;;;8.00;64.11;96688.63;8348569;28;20238;-67
2021/12/01 07:05:41;;;;;;;1.43;1.03;;;;;;;8.14;63.32;96695.59;8348556;28;20235;-67
2021/12/01 07:09:49;;;;;;;2.40;1.10;;;;;;;7.87;64.50;96689.38;8348668;28;20246;-67
2021/12/01 07:13:53;;;;;;;1.27;1.00;;;;;;;8.05;63.71;96687.53;8348032;28;20239;-67
2021/12/01 07:17:56;;;;;;;3.83;1.30;;;;;;;8.01;63.72;96679.16;8347604;28;20550;-67
2021/12/01 07:21:59;;;;;;;2.07;1.83;;;;;;;8.00;63.99;96680.91;8347937;28;20257;-67
2021/12/01 07:26:02;;;;;;;2.53;2.20;;;;;;;8.17;63.36;96663.69;8347593;28;20235;-67
2021/12/01 07:30:07;;;;;;;6.60;1.40;;;;;;;8.13;63.06;96646.69;8347878;28;20330;-67
2021/12/01 07:34:10;;;;;;;1.93;1.20;;;;;;;8.16;62.92;96634.47;8347423;28;20554;-67
2021/12/01 07:38:14;;;;;;;2.10;1.53;;;;;;;7.95;63.42;96630.50;8347683;28;20538;-67
2021/12/01 07:42:17;;;;;;;2.87;1.17;;;;;;;9.68;71.48;96624.72;8347465;28;20240;-72
2021/12/01 07:46:21;;;;;;;2.73;1.20;;;;;;;9.39;60.99;96619.59;8347380;28;20232;-72
2021/12/01 07:50:25;;;;;;;1.97;1.10;;;;;;;9.11;59.37;96607.50;8347356;28;20430;-67
2021/12/01 07:54:28;;;;;;;1.23;1.03;;;;;;;8.94;60.46;96603.34;8347430;28;20291;-67
2021/12/01 07:58:30;;;;;;;1.40;1.00;;;;;;;8.79;60.60;96594.75;8348846;28;20239;-67
2021/12/01 08:02:35;;;;;;;1.87;1.00;;;;;;;8.84;60.13;96585.94;8346656;28;20266;-67
2021/12/01 08:06:40;;;;;;;2.23;1.30;;;;;;;8.63;60.75;96575.94;8347001;28;20235;-67
2021/12/01 08:10:45;;;;;;;1.47;1.03;;;;;;;8.78;60.93;96569.06;8346942;28;20231;-67
2021/12/01 08:14:47;;;;;;;1.67;1.20;;;;;;;8.59;60.48;96559.81;8346850;28;20259;-67
2021/12/01 08:18:54;;;;;;;1.17;1.07;;;;;;;8.70;60.82;96556.63;8346626;28;20235;-67
2021/12/01 08:22:57;;;;;;;1.30;1.20;;;;;;;8.78;60.47;96548.41;8346925;28;20287;-67
2021/12/01 08:27:00;;;;;;;1.23;1.10;;;;;;;8.82;60.57;96539.56;8346365;28;20558;-67
2021/12/01 08:31:03;;;;;;;2.73;1.43;;;;;;;8.66;60.73;96534.47;8350542;28;20235;-67
2021/12/01 08:35:08;;;;;;;1.63;1.20;;;;;;;8.68;60.89;96524.91;8352983;28;20303;-68
2021/12/01 08:39:12;;;;;;;1.97;1.70;;;;;;;8.80;60.23;96524.16;8353048;28;20240;-68
2021/12/01 08:43:15;;;;;;;2.23;1.00;;;;;;;8.86;59.87;96517.78;8354422;28;20244;-67
2021/12/01 08:47:21;;;;;;;2.60;1.03;;;;;;;8.66;60.47;96505.25;8353077;28;20656;-67
2021/12/01 08:51:28;;;;;;;1.50;1.13;;;;;;;8.73;60.34;96502.22;8352561;28;20275;-67
2021/12/01 08:55:31;;;;;;;2.33;1.43;;;;;;;8.57;60.82;96475.69;8352449;28;20246;-66
2021/12/01 08:59:44;;;;;;;2.83;1.20;;;;;;;8.74;60.19;96461.75;8353093;28;20236;-67
2021/12/01 09:03:47;;;;;;;1.50;1.30;;;;;;;8.70;60.52;96453.38;8385683;28;20238;-66
2021/12/01 09:07:51;;;;;;;2.60;1.63;;;;;;;8.85;60.19;96443.03;8385585;28;20429;-66
2021/12/01 09:11:55;;;;;;;1.77;1.40;;;;;;;8.96;60.02;96432.84;8385047;28;20227;-66
2021/12/01 09:15:58;;;;;;;1.40;1.00;;;;;;;8.93;59.65;96431.31;8385050;28;20240;-66
2021/12/01 09:20:03;;;;;;;2.33;1.37;;;;;;;8.76;60.14;96419.44;8385245;28;20243;-66
2021/12/01 09:24:08;;;;;;;1.03;0.93;;;;;;;8.77;59.81;96409.94;8384673;28;20238;-66
2021/12/01 09:28:12;;;;;;;1.77;0.80;;;;;;;8.76;59.83;96398.78;8384993;28;20275;-67
2021/12/01 09:32:15;;;;;;;3.10;1.20;;;;;;;8.98;59.44;96398.25;8384469;28;20235;-67
2021/12/01 09:36:18;;;;;;;1.60;1.20;;;;;;;8.98;59.60;96395.69;8384666;28;20238;-67
2021/12/01 09:40:23;;;;;;;2.63;0.90;;;;;;;9.11;59.08;96390.56;8383987;28;20336;-67
2021/12/01 09:44:26;;;;;;;1.73;0.97;;;;;;;9.11;58.75;96392.34;8380508;28;20243;-67
2021/12/01 09:48:30;;;;;;;0.83;0.70;;;;;;;9.18;58.69;96389.28;8351540;28;20506;-66
2021/12/01 09:52:47;;;;;;;0.70;0.70;;;;;;;9.34;58.34;96372.78;8351457;28;20422;-67
2021/12/01 09:56:52;;;;;;;3.03;0.90;;;;;;;9.28;58.92;96368.03;8351154;28;20232;-67
2021/12/01 10:00:58;;;;;;;4.43;0.80;;;;;;;9.23;58.63;96363.13;8350512;28;20428;-67
2021/12/01 10:05:01;;;;;;;3.30;0.80;;;;;;;9.28;59.28;96362.84;8350496;28;20250;-67
2021/12/01 10:09:07;;;;;;;1.20;0.70;;;;;;;9.40;58.15;96341.38;8350378;28;20242;-66
2021/12/01 10:13:11;;;;;;;1.63;1.00;;;;;;;9.33;58.81;96340.97;8349835;28;20232;-67
2021/12/01 10:17:15;;;;;;;2.67;0.93;;;;;;;9.37;58.67;96326.91;8350146;28;20232;-67
2021/12/01 10:21:20;;;;;;;1.23;0.90;;;;;;;9.38;59.27;96320.81;8350042;28;20543;-67
2021/12/01 10:25:32;;;;;;;0.93;0.63;;;;;;;9.44;58.96;96300.66;8349997;28;20236;-78
2021/12/01 10:29:44;;;;;;;0.60;0.60;;;;;;;9.44;58.83;96285.97;8350005;28;20255;-81
2021/12/01 10:33:47;;;;;;;0.60;0.60;;;;;;;9.20;59.17;96266.00;8350052;28;20232;-75
2021/12/01 10:37:50;;;;;;;1.13;0.67;;;;;;;9.38;59.48;96261.38;8350138;28;20547;-77
2021/12/01 10:41:53;;;;;;;1.37;0.80;;;;;;;9.49;59.22;96263.25;8349365;28;20240;-76
2021/12/01 10:45:59;;;;;;;0.87;0.70;;;;;;;9.26;59.88;96253.63;8348930;28;20258;-75
2021/12/01 10:50:03;;;;;;;0.90;0.60;;;;;;;9.24;60.09;96242.59;8349189;28;20428;-76
2021/12/01 10:54:14;;;;;;;1.37;0.70;;;;;;;9.43;59.46;96237.00;8339952;28;20224;-76
2021/12/01 10:58:18;;;;;;;1.50;1.10;;;;;;;9.59;59.36;96222.09;8348755;28;20238;-78
2021/12/01 11:02:22;;;;;;;2.20;1.70;;;;;;;9.49;59.64;96205.59;8348725;28;20236;-77
2021/12/01 11:06:27;;;;;;;1.80;0.80;;;;;;;9.53;59.19;96194.09;8348656;28;20481;-77
2021/12/01 11:10:30;;;;;;;0.53;0.53;;;;;;;9.67;59.36;96185.41;8348057;28;20232;-76
2021/12/01 11:14:43;;;;;;;0.90;0.57;;;;;;;9.62;59.42;96177.16;8347969;28;20259;-78
2021/12/01 11:18:49;;;;;;;1.10;0.57;;;;;;;9.75;59.03;96171.03;8348536;28;20243;-76
2021/12/01 11:23:08;;;;;;;1.63;0.70;;;;;;;9.68;59.19;96168.97;8348080;28;20238;-78
2021/12/01 11:27:12;;;;;;;1.07;0.60;;;;;;;9.76;59.49;96158.91;8347333;28;20230;-76
2021/12/01 11:31:25;;;;;;;2.53;0.90;;;;;;;9.77;58.73;96148.47;8347374;28;20236;-77
2021/12/01 11:35:30;;;;;;;1.40;0.80;;;;;;;9.96;58.62;96145.41;8347671;28;20616;-73
2021/12/01 11:39:33;;;;;;;0.90;0.60;;;;;;;10.08;58.27;96135.94;8347376;28;20232;-77
2021/12/01 11:43:37;;;;;;;0.50;0.50;;;;;;;10.09;58.31;96122.09;8347368;28;20398;-79
2021/12/01 11:47:46;;;;;;;1.13;0.70;;;;;;;10.17;58.22;96114.59;8347209;28;20231;-79
2021/12/01 11:51:57;;;;;;;0.73;0.50;;;;;;;10.07;59.07;96116.22;8347475;28;20437;-75
2021/12/01 11:56:03;;;;;;;0.93;0.60;;;;;;;10.06;58.79;96111.16;8347156;28;20238;-76
2021/12/01 12:00:08;;;;;;;2.03;0.60;;;;;;;10.19;58.50;96096.41;8338632;28;20235;-78
2021/12/01 12:04:29;;;;;;;0.80;0.50;;;;;;;10.25;58.33;96093.34;8346536;28;20240;-77
2021/12/01 12:08:57;;;;;;;0.60;0.50;;;;;;;10.02;58.69;96076.91;8346882;28;20232;-79
2021/12/01 12:13:03;;;;;;;0.50;0.50;;;;;;;10.27;58.15;96063.03;8345992;28;20244;-75
2021/12/01 12:17:12;;;;;;;0.90;0.50;;;;;;;9.96;58.79;96056.69;8345740;28;20239;-79
2021/12/01 12:21:18;;;;;;;0.40;0.40;;;;;;;10.37;57.93;96048.50;8345752;28;20235;-78
2021/12/01 12:30:02;;;;;;;0.60;0.50;;;;;;;10.17;58.34;96033.59;8394277;27;20597;-76
2021/12/01 12:34:09;;;;;;;0.50;0.40;;;;;;;10.28;58.34;96027.63;8375656;28;20305;-76
2021/12/01 12:38:14;;;;;;;0.87;0.57;;;;;;;10.22;58.33;96008.19;8374654;28;20251;-75
2021/12/01 12:42:17;;;;;;;1.47;0.40;;;;;;;10.26;58.15;95999.31;8375637;28;20550;-75
2021/12/01 12:46:21;;;;;;;2.83;0.73;;;;;;;10.26;58.27;95993.28;8375046;28;20231;-79
2021/12/01 12:50:25;;;;;;;0.40;0.40;;;;;;;10.39;58.08;95988.88;8375471;28;20238;-75
2021/12/01 12:54:28;;;;;;;0.73;0.40;;;;;;;10.41;58.59;95983.59;8375218;28;20227;-77
2021/12/01 12:58:35;;;;;;;0.50;0.50;;;;;;;10.25;58.46;95978.72;8382031;28;20242;-75
2021/12/01 13:02:40;;;;;;;0.60;0.50;;;;;;;10.25;59.07;95976.94;8407885;28;20237;-75
2021/12/01 13:06:43;;;;;;;0.93;0.70;;;;;;;10.39;58.77;95967.34;8407302;28;20338;-75
2021/12/01 13:10:46;;;;;;;0.53;0.53;;;;;;;10.35;58.38;95964.16;8406770;28;20226;-77
2021/12/01 13:14:49;;;;;;;0.60;0.60;;;;;;;10.50;58.50;95952.66;8389170;28;20228;-76
2021/12/01 13:18:55;;;;;;;0.60;0.60;;;;;;;10.49;58.59;95940.66;8376728;28;20227;-76
2021/12/01 13:23:11;;;;;;;0.50;0.40;;;;;;;10.35;59.11;95948.66;8372137;28;20350;-77
2021/12/01 13:27:14;;;;;;;0.33;0.33;;;;;;;10.48;58.85;95936.41;8358300;28;20224;-75
2021/12/01 13:31:20;;;;;;;2.17;0.30;;;;;;;10.40;58.97;95930.19;8380663;28;20235;-75
2021/12/01 13:35:30;;;;;;;1.30;0.40;;;;;;;10.45;59.44;95923.75;8373902;28;20408;-75
2021/12/01 13:39:35;;;;;;;0.37;0.37;;;;;;;10.53;58.95;95923.97;8360344;28;20232;-76
2021/12/01 13:43:39;;;;;;;0.20;0.20;;;;;;;10.49;59.13;95914.78;8351489;28;20235;-77
2021/12/01 13:47:44;;;;;;;0.50;0.43;;;;;;;10.41;59.34;95908.53;8351189;28;20243;-76
2021/12/01 13:51:50;;;;;;;0.70;0.70;;;;;;;10.56;59.20;95899.59;8351245;28;20319;-78
2021/12/01 13:55:53;;;;;;;1.50;1.40;;;;;;;10.60;59.18;95898.41;8351054;28;20254;-76
2021/12/01 13:59:56;;;;;;;0.30;0.30;;;;;;;10.48;59.30;95891.63;8350823;28;20243;-77
2021/12/01 14:04:01;;;;;;;0.67;0.50;;;;;;;10.56;59.57;95892.66;8351258;28;20234;-76
2021/12/01 14:08:08;;;;;;;0.30;0.30;;;;;;;10.49;59.99;95885.47;8350737;28;20242;-74
2021/12/01 14:12:18;;;;;;;0.43;0.40;;;;;;;10.59;60.13;95877.84;8356468;28;20239;-76
2021/12/01 14:16:23;;;;;;;2.73;0.50;;;;;;;10.58;60.23;95871.84;8377999;28;20234;-78
2021/12/01 14:20:27;;;;;;;0.77;0.70;;;;;;;10.56;60.12;95868.53;8383540;28;20228;-76
2021/12/01 14:24:33;;;;;;;1.13;1.00;;;;;;;10.48;60.53;95863.97;8383191;28;20230;-72
2021/12/01 14:28:41;;;;;;;1.40;1.03;;;;;;;10.45;60.68;95842.69;8382401;28;20235;-78
2021/12/01 14:32:46;;;;;;;1.33;1.03;;;;;;;10.34;60.39;95834.00;8364903;28;20235;-76
2021/12/01 14:36:53;;;;;;;2.73;2.43;;;;;;;10.46;60.30;95834.78;8350120;28;20569;-75
2021/12/01 14:40:58;;;;;;;5.50;4.70;;;;;;;10.49;60.32;95844.91;8349287;28;20244;-75
2021/12/01 14:45:04;;;;;;;0.50;0.50;;;;;;;10.36;60.81;95829.53;8348936;28;20238;-78
2021/12/01 14:49:11;;;;;;;1.60;1.20;;;;;;;10.20;60.75;95828.19;8348493;28;20235;-79
2021/12/01 14:53:18;;;;;;;1.60;1.50;;;;;;;10.56;60.29;95825.38;8348497;28;20243;-68
2021/12/01 14:57:28;;;;;;;1.77;1.10;;;;;;;10.38;60.65;95813.88;8349130;28;20243;-68
2021/12/01 15:01:33;;;;;;;0.53;0.53;;;;;;;10.61;60.05;95811.25;8348471;28;20232;-67
2021/12/01 15:05:46;;;;;;;0.90;0.60;;;;;;;10.50;59.96;95815.50;8348712;28;20429;-67
2021/12/01 15:09:49;;;;;;;1.20;0.90;;;;;;;10.85;59.24;95824.84;8348631;28;20239;-68
2021/12/01 15:13:55;;;;;;;0.50;0.40;;;;;;;10.40;60.47;95831.88;8348254;28;20236;-68
2021/12/01 15:18:00;;;;;;;0.40;0.40;;;;;;;10.48;60.50;95837.28;8348290;28;20235;-68
2021/12/01 15:22:04;;;;;;;0.47;0.47;;;;;;;10.31;61.24;95828.22;8348454;28;20236;-68
2021/12/01 15:26:07;;;;;;;1.00;0.63;;;;;;;10.22;61.53;95819.38;8339610;28;20575;-68
2021/12/01 15:30:12;;;;;;;0.83;0.50;;;;;;;10.18;61.99;95820.53;8347537;28;20434;-66
2021/12/01 15:34:15;;;;;;;0.83;0.57;;;;;;;10.34;61.31;95813.28;8347356;28;20232;-66
2021/12/01 15:38:18;;;;;;;0.50;0.50;;;;;;;10.39;61.61;95802.56;8369335;28;20459;-66
2021/12/01 15:42:21;;;;;;;0.67;0.60;;;;;;;10.21;62.19;95802.22;8380663;28;20231;-66
2021/12/01 15:46:25;;;;;;;1.40;0.70;;;;;;;10.11;62.22;95798.69;8360287;28;20239;-66
2021/12/01 15:50:29;;;;;;;0.80;0.77;;;;;;;10.18;62.46;95807.63;8349747;28;20247;-66
2021/12/01 15:54:31;;;;;;;1.57;0.67;;;;;;;10.17;62.00;95798.22;8380343;28;20423;-66
2021/12/01 15:58:34;;;;;;;1.33;0.70;;;;;;;10.18;62.16;95803.28;8375289;28;20236;-63
2021/12/01 16:02:39;;;;;;;2.33;0.90;;;;;;;10.42;61.83;95793.78;8346125;28;20291;-65
2021/12/01 16:06:43;;;;;;;1.17;0.87;;;;;;;10.20;62.14;95795.38;8346730;28;20542;-63
2021/12/01 16:10:46;;;;;;;1.13;0.80;;;;;;;10.20;62.37;95790.22;8358673;28;20227;-63
2021/12/01 16:14:49;;;;;;;0.87;0.50;;;;;;;10.23;62.13;95802.09;8367218;28;20420;-63
2021/12/01 16:18:53;;;;;;;0.77;0.50;;;;;;;10.19;62.41;95793.75;8362055;28;20391;-63
2021/12/01 16:22:57;;;;;;;1.07;0.50;;;;;;;10.30;62.55;95791.19;8360563;28;20234;-64
2021/12/01 16:27:06;;;;;;;1.10;0.57;;;;;;;10.29;62.48;95799.03;8354548;28;20236;-64
2021/12/01 16:31:09;;;;;;;0.70;0.70;;;;;;;10.14;63.38;95798.44;8361759;28;20335;-63
2021/12/01 16:35:13;;;;;;;0.70;0.70;;;;;;;10.14;63.72;95812.19;8362205;28;20228;-63
2021/12/01 16:39:16;;;;;;;1.20;1.10;;;;;;;10.10;63.72;95804.81;8359527;28;20246;-63
2021/12/01 16:43:21;;;;;;;1.30;0.80;;;;;;;10.14;63.85;95807.03;8361152;28;20220;-63
2021/12/01 16:47:24;;;;;;;2.30;1.43;;;;;;;10.11;63.90;95816.78;8353847;28;20231;-63
2021/12/01 16:51:28;;;;;;;0.93;0.60;;;;;;;10.16;64.01;95812.91;8355663;28;20236;-64
2021/12/01 16:55:31;;;;;;;1.70;1.30;;;;;;;10.24;63.75;95799.38;8358536;28;20223;-63
2021/12/01 16:59:35;;;;;;;2.00;1.47;;;;;;;10.00;64.03;95801.28;8356117;28;20381;-64
2021/12/01 17:03:47;;;;;;;4.83;4.10;;;;;;;10.17;63.89;95803.41;8353424;28;20252;-64
2021/12/01 17:08:11;;;;;;;4.00;2.70;;;;;;;10.38;63.08;95790.59;8367214;28;20242;-64
2021/12/01 17:12:14;;;;;;;6.10;4.70;;;;;;;9.89;63.79;95800.31;8372780;28;20227;-63
2021/12/01 17:16:17;;;;;;;5.20;3.97;;;;;;;10.16;63.91;95801.75;8384923;28;20399;-63
2021/12/01 17:20:20;;;;;;;1.50;1.20;;;;;;;10.03;63.93;95807.03;8385370;28;20314;-63
2021/12/01 17:24:25;;;;;;;2.80;2.33;;;;;;;10.12;64.09;95808.09;8385067;28;20236;-63
2021/12/01 17:28:29;;;;;;;1.30;1.20;;;;;;;10.26;63.43;95807.03;8385433;28;20250;-64
2021/12/01 17:32:32;;;;;;;5.33;1.63;;;;;;;10.21;64.02;95804.00;8381635;28;20243;-63
2021/12/01 17:36:34;;;;;;;1.20;0.90;;;;;;;10.16;63.84;95801.75;8351690;28;20232;-63
2021/12/01 17:40:39;;;;;;;1.83;1.00;;;;;;;9.95;64.65;95801.63;8358277;28;20231;-65
2021/12/01 17:44:42;;;;;;;1.60;1.30;;;;;;;10.08;64.68;95817.84;8372566;28;20235;-65
2021/12/01 17:48:51;;;;;;;1.07;0.80;;;;;;;10.12;64.36;95816.66;8351225;28;20258;-64
2021/12/01 17:52:54;;;;;;;1.40;0.80;;;;;;;10.05;65.38;95815.50;8350508;28;20283;-63
2021/12/01 17:56:59;;;;;;;1.17;0.90;;;;;;;10.02;65.21;95826.09;8350501;28;20228;-63
2021/12/01 18:01:03;;;;;;;2.73;1.10;;;;;;;9.97;65.10;95828.19;8350615;28;20243;-63
2021/12/01 18:05:07;;;;;;;0.97;0.87;;;;;;;9.84;64.72;95817.13;8350113;28;20236;-64
2021/12/01 18:09:10;;;;;;;2.97;2.13;;;;;;;9.82;65.47;95832.75;8358446;28;20432;-63
2021/12/01 18:13:15;;;;;;;3.90;1.40;;;;;;;9.84;65.01;95832.63;8383592;28;20422;-63
2021/12/01 18:17:18;;;;;;;1.53;1.00;;;;;;;9.93;64.53;95850.03;8366004;28;20232;-63
2021/12/01 18:21:21;;;;;;;2.63;1.00;;;;;;;9.93;64.53;95844.88;8350145;28;20236;-63
2021/12/01 18:25:41;;;;;;;1.07;0.70;;;;;;;9.77;65.44;95846.03;8349969;28;20240;-63
2021/12/01 18:29:45;;;;;;;0.70;0.70;;;;;;;9.94;65.64;95867.22;8380737;28;20231;-62
2021/12/01 18:33:48;;;;;;;9.87;8.13;;;;;;;9.78;65.44;95870.09;8382549;28;20294;-63
2021/12/01 18:37:51;;;;;;;0.93;0.80;;;;;;;9.66;65.37;95874.44;8382627;28;20231;-63
2021/12/01 18:41:56;;;;;;;2.37;0.80;;;;;;;9.78;65.10;95880.44;8382684;28;20235;-63
2021/12/01 18:46:00;;;;;;;1.87;0.90;;;;;;;9.79;65.04;95889.88;8365832;28;20232;-63
2021/12/01 18:50:05;;;;;;;2.37;0.57;;;;;;;9.78;65.40;95886.44;8349103;28;20398;-62
2021/12/01 18:54:09;;;;;;;1.23;0.70;;;;;;;9.73;64.94;95888.56;8318851;28;20240;-63
2021/12/01 18:58:12;;;;;;;1.53;0.70;;;;;;;9.79;64.60;95897.63;8305285;28;20244;-63
2021/12/01 19:02:17;;;;;;;1.50;0.60;;;;;;;9.62;64.63;95903.22;8297321;28;20226;-63
2021/12/01 19:06:20;;;;;;;1.57;0.90;;;;;;;9.64;64.54;95901.34;8298315;28;20233;-62
2021/12/01 19:10:25;;;;;;;1.77;0.90;;;;;;;9.69;64.42;95909.56;8285876;28;20241;-64
2021/12/01 19:14:28;;;;;;;0.63;0.63;;;;;;;9.52;64.99;95924.56;8283311;28;20559;-63
2021/12/01 19:18:33;;;;;;;0.50;0.50;;;;;;;9.52;64.26;95936.63;8280909;28;20422;-63
2021/12/01 19:22:39;;;;;;;1.13;0.70;;;;;;;9.54;63.97;95938.19;8279936;28;20240;-65
2021/12/01 19:26:42;;;;;;;0.70;0.50;;;;;;;9.54;64.02;95935.59;8285028;28;20428;-65
2021/12/01 19:30:45;;;;;;;1.43;0.60;;;;;;;9.49;63.33;95927.34;8311126;28;20356;-65
2021/12/01 19:34:50;;;;;;;0.40;0.40;;;;;;;9.52;63.63;95937.47;8310869;28;20324;-65